Time;durP1;ratioP1;P1;durP2;ratioP2;P2;SDS_P1;SDS_P2;PMS_P1;PMS_P2;Temp;Humidity;BMP_temperature;BMP_pressure;BME280_temperature;BME280_humidity;BME280_pressure;Samples;Min_cycle;Max_cycle;Signal;HPM_P1;HPM_P2
2021/06/10 00:00:17;;;;;;;14.35;12.40;;;16.30;50.30;;;;;;6208748;23;20092;-69
2021/06/10 00:03:06;;;;;;;17.02;11.57;;;16.40;51.10;;;;;;6207113;23;20597;-69
2021/06/10 00:05:54;;;;;;;13.95;12.45;;;16.20;50.90;;;;;;6203858;23;20539;-68
2021/06/10 00:08:42;;;;;;;15.70;12.18;;;16.20;52.70;;;;;;6209277;23;20099;-67
2021/06/10 00:11:30;;;;;;;17.13;13.40;;;16.20;53.20;;;;;;6208836;23;20059;-68
2021/06/10 00:14:18;;;;;;;14.63;12.90;;;16.20;53.50;;;;;;6207673;23;20017;-68
2021/06/10 00:17:06;;;;;;;17.10;13.10;;;16.20;52.70;;;;;;6206428;23;20063;-68
2021/06/10 00:19:55;;;;;;;15.95;12.88;;;16.10;53.40;;;;;;6207593;23;20031;-67
2021/06/10 00:22:44;;;;;;;16.15;13.32;;;16.10;53.40;;;;;;6207038;23;20100;-68
2021/06/10 00:25:32;;;;;;;16.83;12.85;;;16.10;54.30;;;;;;6199865;23;20103;-68
2021/06/10 00:28:24;;;;;;;18.02;13.52;;;16.10;53.70;;;;;;6207265;23;20029;-67
2021/06/10 00:31:12;;;;;;;15.40;12.55;;;16.10;52.70;;;;;;6207761;23;20032;-66
2021/06/10 00:34:00;;;;;;;17.90;13.02;;;16.10;53.30;;;;;;6205020;23;20519;-68
2021/06/10 00:36:50;;;;;;;14.73;13.13;;;16.10;54.00;;;;;;6203731;23;20017;-68
2021/06/10 00:39:38;;;;;;;16.75;13.18;;;16.10;53.20;;;;;;6207995;23;20462;-68
2021/06/10 00:42:26;;;;;;;15.32;12.38;;;16.00;53.40;;;;;;6208402;23;20021;-68
2021/06/10 00:45:17;;;;;;;14.43;12.38;;;15.90;55.30;;;;;;6202565;23;20114;-68
2021/06/10 00:48:05;;;;;;;14.77;12.50;;;15.90;55.20;;;;;;6209192;23;20028;-69
2021/06/10 00:50:53;;;;;;;14.30;12.80;;;15.90;55.80;;;;;;6207940;23;20110;-69
2021/06/10 00:53:42;;;;;;;15.35;13.02;;;15.90;56.60;;;;;;6184241;23;20106;-68
2021/06/10 00:56:30;;;;;;;19.42;14.05;;;15.80;55.60;;;;;;6204042;23;20413;-67
2021/06/10 00:59:19;;;;;;;15.45;12.93;;;15.70;56.40;;;;;;6209189;23;20401;-68
2021/06/10 01:02:07;;;;;;;16.73;13.35;;;15.70;58.50;;;;;;6207861;23;20086;-69
2021/06/10 01:04:54;;;;;;;15.38;13.32;;;15.70;58.60;;;;;;6203901;23;20021;-69
2021/06/10 01:07:50;;;;;;;15.40;12.77;;;15.80;58.70;;;;;;6205951;23;20070;-69
2021/06/10 01:10:52;;;;;;;17.70;14.60;;;15.70;58.60;;;;;;6208103;23;20461;-68
2021/06/10 01:13:49;;;;;;;16.17;14.35;;;15.80;58.70;;;;;;6205719;23;20024;-68
2021/06/10 01:16:41;;;;;;;17.27;15.10;;;15.90;58.70;;;;;;6206649;23;20154;-67
2021/06/10 01:19:50;;;;;;;17.52;14.43;;;15.90;58.70;;;;;;6209279;23;20031;-67
2021/06/10 01:22:42;;;;;;;17.50;15.50;;;16.00;58.80;;;;;;6209473;23;20016;-67
2021/06/10 01:25:44;;;;;;;18.30;15.07;;;16.00;58.80;;;;;;6204284;23;20029;-68
2021/06/10 01:28:35;;;;;;;19.17;15.50;;;16.00;58.70;;;;;;6210737;23;20024;-67
2021/06/10 01:31:23;;;;;;;21.67;16.95;;;16.00;58.00;;;;;;6210540;23;20099;-67
2021/06/10 01:34:13;;;;;;;22.27;17.52;;;16.00;58.60;;;;;;6210250;23;20020;-67
2021/06/10 01:37:02;;;;;;;23.48;17.95;;;15.90;58.70;;;;;;6202584;23;20373;-68
2021/06/10 01:39:50;;;;;;;21.00;17.50;;;15.90;59.30;;;;;;6210346;23;20024;-69
2021/06/10 01:42:41;;;;;;;21.30;18.38;;;15.80;60.10;;;;;;6207585;23;20024;-69
2021/06/10 01:45:31;;;;;;;25.20;20.65;;;15.80;60.90;;;;;;6183212;23;20125;-69
2021/06/10 01:48:20;;;;;;;26.50;20.50;;;15.80;62.60;;;;;;6211084;23;20031;-68
2021/06/10 01:51:08;;;;;;;24.38;20.02;;;16.00;63.00;;;;;;6211002;23;20391;-68
2021/06/10 01:53:59;;;;;;;25.90;21.05;;;15.80;62.80;;;;;;6206453;23;20474;-67
2021/06/10 01:56:48;;;;;;;26.85;20.88;;;15.80;63.60;;;;;;6205104;23;20102;-69
2021/06/10 01:59:36;;;;;;;22.60;19.23;;;15.80;63.90;;;;;;6202812;23;20398;-69
2021/06/10 02:02:26;;;;;;;24.83;19.75;;;15.80;64.40;;;;;;6210228;23;20035;-68
2021/06/10 02:05:14;;;;;;;23.55;20.25;;;15.70;64.50;;;;;;6205751;23;20101;-69
2021/06/10 02:08:03;;;;;;;25.20;19.70;;;15.60;64.90;;;;;;6208887;23;20458;-69
2021/06/10 02:10:53;;;;;;;23.20;20.50;;;15.60;65.70;;;;;;6208532;23;20092;-68
2021/06/10 02:13:43;;;;;;;27.35;18.98;;;15.50;65.80;;;;;;6206819;23;20024;-68
2021/06/10 02:16:33;;;;;;;23.15;19.17;;;15.60;66.40;;;;;;6202528;23;20071;-68
2021/06/10 02:19:23;;;;;;;22.40;18.95;;;15.60;65.10;;;;;;6208198;23;20040;-68
2021/06/10 02:22:12;;;;;;;23.38;19.20;;;15.60;65.20;;;;;;6209962;23;20028;-67
2021/06/10 02:25:01;;;;;;;21.63;18.83;;;15.60;65.00;;;;;;6206808;23;20443;-69
2021/06/10 02:27:49;;;;;;;23.10;19.42;;;15.60;64.90;;;;;;6207323;23;20400;-67
2021/06/10 02:30:37;;;;;;;23.75;19.83;;;15.60;65.30;;;;;;6209270;23;20075;-68
2021/06/10 02:33:25;;;;;;;27.73;20.40;;;15.60;64.50;;;;;;6209053;23;20031;-68
2021/06/10 02:36:18;;;;;;;25.73;20.50;;;15.60;64.50;;;;;;6205149;23;20082;-68
2021/06/10 02:39:08;;;;;;;29.58;21.25;;;15.60;64.50;;;;;;6209911;23;20103;-68
2021/06/10 02:41:58;;;;;;;28.35;21.85;;;15.60;64.60;;;;;;6210610;23;20489;-68
2021/06/10 02:44:50;;;;;;;27.50;21.80;;;15.70;64.20;;;;;;6205554;23;20027;-67
2021/06/10 02:47:41;;;;;;;27.58;20.85;;;15.60;63.60;;;;;;6208298;23;20063;-68
2021/06/10 02:50:30;;;;;;;26.02;21.67;;;15.60;63.70;;;;;;6186628;23;20116;-67
2021/06/10 02:53:22;;;;;;;28.77;22.55;;;15.60;63.90;;;;;;6208156;23;20113;-68
2021/06/10 02:56:10;;;;;;;28.02;21.63;;;15.60;64.10;;;;;;6203949;23;20741;-68
2021/06/10 02:59:00;;;;;;;32.17;21.52;;;15.60;63.90;;;;;;6186218;23;20141;-67
2021/06/10 03:01:48;;;;;;;24.85;20.83;;;15.60;63.80;;;;;;6209777;23;20075;-68
2021/06/10 03:04:37;;;;;;;23.17;20.70;;;15.50;63.40;;;;;;6206983;23;20028;-68
2021/06/10 03:07:25;;;;;;;24.83;20.85;;;15.40;63.40;;;;;;6205488;23;20396;-68
2021/06/10 03:10:14;;;;;;;28.33;22.23;;;15.40;64.20;;;;;;6209182;23;20409;-67
2021/06/10 03:13:04;;;;;;;26.45;22.08;;;15.40;64.30;;;;;;6185255;23;20106;-67
2021/06/10 03:15:53;;;;;;;26.70;21.77;;;15.40;64.10;;;;;;6204027;23;20090;-68
2021/06/10 03:18:41;;;;;;;25.58;21.60;;;15.40;64.20;;;;;;6208102;23;20025;-68
2021/06/10 03:21:30;;;;;;;24.58;21.27;;;15.40;63.70;;;;;;6207045;23;20047;-68
2021/06/10 03:24:19;;;;;;;26.40;21.45;;;15.40;64.40;;;;;;6207656;23;20052;-67
2021/06/10 03:27:09;;;;;;;25.23;21.10;;;15.30;64.30;;;;;;6205647;23;20035;-67
2021/06/10 03:29:58;;;;;;;27.83;21.77;;;15.40;64.40;;;;;;6205437;23;20056;-69
2021/06/10 03:32:46;;;;;;;31.63;23.13;;;15.40;63.90;;;;;;6206951;23;20025;-69
2021/06/10 03:35:36;;;;;;;27.23;21.70;;;15.40;63.00;;;;;;6202108;23;20051;-68
2021/06/10 03:38:26;;;;;;;25.98;20.33;;;15.40;62.30;;;;;;6208702;23;20096;-68
2021/06/10 03:41:15;;;;;;;24.08;20.17;;;15.40;62.50;;;;;;6208375;23;20072;-67
2021/06/10 03:44:07;;;;;;;26.52;20.40;;;15.30;62.40;;;;;;6207779;23;20532;-67
2021/06/10 03:46:56;;;;;;;27.77;21.45;;;15.30;62.60;;;;;;6205290;23;20457;-68
2021/06/10 03:49:44;;;;;;;26.63;21.08;;;15.70;62.10;;;;;;6208645;23;20035;-67
2021/06/10 03:52:32;;;;;;;23.33;20.27;;;15.80;59.30;;;;;;6208227;23;20033;-67
2021/06/10 03:55:20;;;;;;;25.08;19.77;;;15.90;57.80;;;;;;6204576;23;20048;-67
2021/06/10 03:58:08;;;;;;;22.05;18.80;;;16.20;53.00;;;;;;6209457;23;20054;-67
2021/06/10 04:00:57;;;;;;;25.52;18.85;;;16.30;48.70;;;;;;6207972;23;20025;-67
2021/06/10 04:03:45;;;;;;;23.08;17.65;;;16.60;48.60;;;;;;6207205;23;20476;-67
2021/06/10 04:06:34;;;;;;;20.70;17.90;;;16.50;45.40;;;;;;6204301;23;20020;-68
2021/06/10 04:09:22;;;;;;;20.92;17.30;;;16.80;45.60;;;;;;6209255;23;20056;-67
2021/06/10 04:12:10;;;;;;;21.75;16.75;;;17.10;37.30;;;;;;6209827;23;20033;-68
2021/06/10 04:14:58;;;;;;;22.33;17.77;;;17.40;39.30;;;;;;6181083;23;20025;-68
2021/06/10 04:17:48;;;;;;;20.85;17.00;;;17.50;35.10;;;;;;6207767;23;20071;-68
2021/06/10 04:20:36;;;;;;;20.35;16.40;;;17.50;31.20;;;;;;6208825;23;20028;-67
2021/06/10 04:23:24;;;;;;;18.63;16.35;;;18.00;27.70;;;;;;6208245;23;20405;-67
2021/06/10 04:26:12;;;;;;;19.02;15.48;;;18.20;27.50;;;;;;6205388;23;20024;-67
2021/06/10 04:29:00;;;;;;;18.13;15.38;;;18.30;22.80;;;;;;6205777;23;20094;-67
2021/06/10 04:31:48;;;;;;;18.85;14.73;;;18.40;21.70;;;;;;6208208;23;20028;-67
2021/06/10 04:34:37;;;;;;;19.80;15.25;;;18.70;19.70;;;;;;6206900;23;20441;-67
2021/06/10 04:37:25;;;;;;;20.55;15.85;;;19.20;18.00;;;;;;6208398;23;20051;-67
2021/06/10 04:40:15;;;;;;;17.98;15.52;;;19.30;14.50;;;;;;6209737;23;20031;-68
2021/06/10 04:43:03;;;;;;;23.55;16.40;;;18.80;15.80;;;;;;6205985;23;20118;-68
2021/06/10 04:45:51;;;;;;;24.75;16.42;;;18.90;17.80;;;;;;6203795;23;20032;-67
2021/06/10 04:48:39;;;;;;;20.25;16.02;;;19.40;14.20;;;;;;6208358;23;20491;-68
2021/06/10 04:51:28;;;;;;;18.83;16.25;;;19.90;10.90;;;;;;6209191;23;20685;-68
2021/06/10 04:54:17;;;;;;;22.90;16.40;;;20.20;11.30;;;;;;6207598;23;20048;-67
2021/06/10 04:57:06;;;;;;;20.05;17.30;;;20.20;6.20;;;;;;6206041;23;20024;-69
2021/06/10 04:59:54;;;;;;;22.35;16.90;;;19.50;8.60;;;;;;6208531;23;20402;-66
2021/06/10 05:02:42;;;;;;;23.35;17.92;;;19.70;11.50;;;;;;6207231;23;20052;-68
2021/06/10 05:05:30;;;;;;;17.45;15.55;;;19.60;10.20;;;;;;6204774;23;20047;-69
2021/06/10 05:08:19;;;;;;;23.10;17.50;;;20.30;11.10;;;;;;6208210;23;20027;-68
2021/06/10 05:11:07;;;;;;;26.25;18.17;;;20.10;8.10;;;;;;6208672;23;20052;-67
2021/06/10 05:13:58;;;;;;;21.27;16.52;;;19.90;9.70;;;;;;6205923;23;20225;-68
2021/06/10 05:16:48;;;;;;;20.80;16.42;;;20.70;7.60;;;;;;6204388;23;20024;-67
2021/06/10 05:19:36;;;;;;;19.92;16.92;;;20.00;9.20;;;;;;6209018;23;20028;-67
2021/06/10 05:22:25;;;;;;;23.08;17.33;;;20.10;6.10;;;;;;6206596;23;20028;-68
2021/06/10 05:25:14;;;;;;;18.92;16.45;;;20.80;6.20;;;;;;6205455;23;20020;-68
2021/06/10 05:28:04;;;;;;;19.02;16.60;;;20.60;5.20;;;;;;6208116;23;20052;-68
2021/06/10 05:30:52;;;;;;;20.35;16.67;;;21.20;4.10;;;;;;6207339;23;20025;-67
2021/06/10 05:33:40;;;;;;;21.23;16.73;;;20.90;3.40;;;;;;6204941;23;20024;-69
2021/06/10 05:36:28;;;;;;;17.77;15.82;;;22.00;1.00;;;;;;6200562;23;20064;-66
2021/06/10 05:39:16;;;;;;;18.27;15.43;;;21.10;1.00;;;;;;6207103;23;20071;-68
2021/06/10 05:42:06;;;;;;;20.08;15.52;;;21.60;1.00;;;;;;6207999;23;20024;-69
2021/06/10 05:44:54;;;;;;;17.98;15.75;;;21.20;2.20;;;;;;6204986;23;20029;-68
2021/06/10 05:47:42;;;;;;;22.40;16.58;;;21.60;1.30;;;;;;6206754;23;20020;-69
2021/06/10 05:50:30;;;;;;;20.13;16.98;;;21.30;1.00;;;;;;6208473;23;20143;-67
2021/06/10 05:53:20;;;;;;;17.77;14.55;;;21.10;1.10;;;;;;6205612;23;20028;-68
2021/06/10 05:56:08;;;;;;;18.48;15.05;;;21.90;1.00;;;;;;6202598;23;20067;-68
2021/06/10 05:58:57;;;;;;;18.63;16.42;;;21.70;1.00;;;;;;6207214;23;20100;-68
2021/06/10 06:01:45;;;;;;;17.33;15.35;;;21.60;1.00;;;;;;6208029;23;20038;-69
2021/06/10 06:04:33;;;;;;;19.00;14.88;;;21.80;1.00;;;;;;6207190;23;20064;-68
2021/06/10 06:07:21;;;;;;;15.23;13.63;;;21.20;2.90;;;;;;6206766;23;20017;-68
2021/06/10 06:10:11;;;;;;;19.08;15.25;;;20.90;5.00;;;;;;6208924;23;20082;-67
2021/06/10 06:13:00;;;;;;;16.45;14.75;;;20.70;7.60;;;;;;6207323;23;20077;-68
2021/06/10 06:15:51;;;;;;;15.30;13.43;;;19.70;8.80;;;;;;6202769;23;20656;-68
2021/06/10 06:18:39;;;;;;;16.10;13.02;;;20.50;8.00;;;;;;6208067;23;20098;-67
2021/06/10 06:21:28;;;;;;;17.30;13.32;;;20.20;8.30;;;;;;6210410;23;20035;-67
2021/06/10 06:24:16;;;;;;;13.50;11.93;;;20.40;7.40;;;;;;6207063;23;20017;-68
2021/06/10 06:27:05;;;;;;;14.13;12.73;;;20.60;7.10;;;;;;6205670;23;20032;-68
2021/06/10 06:29:53;;;;;;;15.60;12.95;;;20.50;5.60;;;;;;6209552;23;20038;-69
2021/06/10 06:32:43;;;;;;;13.38;10.93;;;20.80;3.50;;;;;;6208709;23;20020;-67
2021/06/10 06:35:30;;;;;;;19.90;12.75;;;22.00;1.00;;;;;;6204685;23;20118;-68
2021/06/10 06:38:19;;;;;;;14.55;12.68;;;21.80;1.00;;;;;;6208606;23;20020;-69
2021/06/10 06:41:07;;;;;;;11.50;10.32;;;21.80;1.00;;;;;;6207144;23;20025;-69
2021/06/10 06:43:54;;;;;;;12.65;11.35;;;22.40;1.00;;;;;;6208231;23;20028;-69
2021/06/10 06:46:42;;;;;;;18.85;12.55;;;21.90;1.00;;;;;;6203079;23;20349;-68
2021/06/10 06:49:32;;;;;;;13.40;11.88;;;21.90;1.00;;;;;;6205160;23;20028;-67
2021/06/10 06:52:20;;;;;;;13.80;11.82;;;21.50;1.00;;;;;;6208412;23;20821;-68
2021/06/10 06:55:09;;;;;;;14.43;11.73;;;21.80;1.80;;;;;;6204668;23;20020;-67
2021/06/10 06:57:57;;;;;;;12.68;10.93;;;21.90;1.30;;;;;;6209140;23;20335;-68
2021/06/10 07:00:45;;;;;;;11.18;9.88;;;22.10;1.00;;;;;;6209948;23;20052;-69
2021/06/10 07:03:33;;;;;;;11.73;9.70;;;21.60;1.00;;;;;;6206798;23;20469;-69
2021/06/10 07:06:22;;;;;;;12.98;10.38;;;21.50;1.40;;;;;;6203067;23;20023;-69
2021/06/10 07:09:10;;;;;;;10.80;9.70;;;21.00;2.30;;;;;;6208883;23;20051;-68
2021/06/10 07:11:58;;;;;;;11.73;10.57;;;21.40;1.00;;;;;;6208364;23;20323;-67
2021/06/10 07:14:46;;;;;;;11.50;10.30;;;21.30;1.10;;;;;;6205671;23;20032;-68
2021/06/10 07:17:34;;;;;;;11.63;10.43;;;21.60;1.00;;;;;;6207001;23;20028;-67
2021/06/10 07:20:22;;;;;;;10.60;9.60;;;21.50;1.00;;;;;;6207890;23;20106;-68
2021/06/10 07:23:12;;;;;;;11.38;10.10;;;21.60;1.00;;;;;;6206140;23;20028;-67
2021/06/10 07:26:00;;;;;;;18.17;11.40;;;21.40;1.00;;;;;;6204344;23;20071;-68
2021/06/10 07:28:47;;;;;;;11.80;10.60;;;21.30;1.00;;;;;;6208013;23;20020;-68
2021/06/10 07:31:35;;;;;;;10.23;9.20;;;21.30;1.40;;;;;;6208123;23;20101;-69
2021/06/10 07:34:24;;;;;;;11.10;10.00;;;21.40;2.20;;;;;;6206351;23;20155;-67
2021/06/10 07:37:11;;;;;;;13.07;10.88;;;21.80;2.10;;;;;;6206253;23;20024;-69
2021/06/10 07:40:01;;;;;;;10.85;9.82;;;21.60;1.00;;;;;;6207113;23;20071;-68
2021/06/10 07:42:49;;;;;;;11.32;10.15;;;21.90;1.10;;;;;;6207193;23;20035;-68
2021/06/10 07:45:37;;;;;;;12.50;11.05;;;22.00;1.00;;;;;;6203822;23;20024;-67
2021/06/10 07:48:29;;;;;;;13.70;11.52;;;21.90;1.00;;;;;;6208594;23;20091;-67
2021/06/10 07:51:17;;;;;;;13.98;11.30;;;22.40;1.00;;;;;;6210004;23;20028;-69
2021/06/10 07:54:05;;;;;;;13.00;11.48;;;22.40;1.00;;;;;;6185613;23;20342;-68
2021/06/10 07:56:54;;;;;;;14.20;11.45;;;21.70;1.00;;;;;;6180158;23;20025;-69
2021/06/10 07:59:42;;;;;;;14.02;12.43;;;21.30;1.00;;;;;;6187599;23;20139;-69
2021/06/10 08:02:31;;;;;;;12.88;11.63;;;21.80;1.00;;;;;;6207460;23;20024;-68
2021/06/10 08:05:19;;;;;;;13.18;11.80;;;22.50;1.00;;;;;;6205726;23;20020;-68
2021/06/10 08:08:07;;;;;;;13.88;11.43;;;23.30;1.00;;;;;;6184923;23;20496;-67
2021/06/10 08:10:56;;;;;;;13.30;11.35;;;23.20;1.00;;;;;;6208209;23;20052;-68
2021/06/10 08:13:46;;;;;;;13.02;10.93;;;23.10;1.00;;;;;;6207973;23;20024;-68
2021/06/10 08:16:34;;;;;;;12.27;10.90;;;23.60;1.00;;;;;;6204278;23;20052;-69
2021/06/10 08:19:22;;;;;;;13.55;12.15;;;23.90;1.00;;;;;;6207892;23;20267;-68
2021/06/10 08:22:11;;;;;;;13.02;11.57;;;23.80;1.00;;;;;;6207705;23;20024;-68
2021/06/10 08:24:58;;;;;;;14.55;13.07;;;23.60;1.00;;;;;;6205217;23;20100;-68
2021/06/10 08:27:47;;;;;;;15.15;12.95;;;22.80;1.00;;;;;;6206602;23;20071;-68
2021/06/10 08:30:36;;;;;;;12.57;11.32;;;23.00;1.00;;;;;;6207445;23;20025;-69
2021/06/10 08:33:24;;;;;;;18.63;12.77;;;23.50;1.00;;;;;;6205908;23;20547;-69
2021/06/10 08:36:13;;;;;;;15.18;13.63;;;23.50;1.00;;;;;;6204786;23;20026;-68
2021/06/10 08:39:01;;;;;;;14.07;12.55;;;23.40;1.00;;;;;;6207513;23;20110;-69
2021/06/10 08:41:49;;;;;;;14.88;13.38;;;23.00;1.00;;;;;;6206897;23;20024;-68
2021/06/10 08:44:37;;;;;;;13.20;11.95;;;23.50;1.00;;;;;;6206456;23;20021;-69
2021/06/10 08:47:27;;;;;;;14.57;13.18;;;23.80;1.00;;;;;;6206317;23;20024;-68
2021/06/10 08:50:18;;;;;;;13.85;12.45;;;23.20;1.00;;;;;;6208832;23;20028;-69
2021/06/10 08:53:07;;;;;;;17.58;13.93;;;23.70;1.00;;;;;;6207592;23;20040;-68
2021/06/10 08:55:56;;;;;;;15.07;13.65;;;22.90;1.00;;;;;;6201713;23;20409;-68
2021/06/10 08:58:44;;;;;;;14.00;12.57;;;23.00;1.00;;;;;;6207097;23;20024;-70
2021/06/10 09:01:32;;;;;;;14.80;13.30;;;23.10;1.00;;;;;;6207983;23;20091;-66
2021/06/10 09:04:22;;;;;;;14.85;13.30;;;22.50;1.00;;;;;;6208314;23;20036;-67
2021/06/10 09:07:10;;;;;;;17.70;13.60;;;22.90;1.00;;;;;;6206195;23;20017;-68
2021/06/10 09:09:58;;;;;;;13.73;12.27;;;22.50;1.00;;;;;;6205944;23;20362;-68
2021/06/10 09:12:49;;;;;;;14.00;12.55;;;23.40;1.00;;;;;;6207665;23;20508;-69
2021/06/10 09:15:38;;;;;;;15.20;13.45;;;23.60;1.00;;;;;;6201566;23;20501;-69
2021/06/10 09:18:29;;;;;;;15.18;13.63;;;23.40;1.00;;;;;;6208915;23;20110;-68
2021/06/10 09:21:30;;;;;;;13.48;12.07;;;23.30;1.00;;;;;;6207763;23;20057;-67
2021/06/10 09:24:24;;;;;;;14.75;12.63;;;24.10;1.00;;;;;;6185059;23;20096;-68
2021/06/10 09:27:13;;;;;;;14.40;13.00;;;24.40;1.00;;;;;;6205394;23;20096;-68
2021/06/10 09:30:01;;;;;;;13.38;11.98;;;24.40;1.00;;;;;;6205678;23;20032;-67
2021/06/10 09:32:50;;;;;;;14.40;12.90;;;24.40;1.00;;;;;;6206481;23;20028;-69
2021/06/10 09:35:41;;;;;;;13.55;12.23;;;24.50;1.00;;;;;;6206084;23;20021;-68
2021/06/10 09:38:31;;;;;;;14.48;13.02;;;24.20;1.00;;;;;;6188577;23;20537;-69
2021/06/10 09:41:19;;;;;;;15.85;12.98;;;23.30;1.00;;;;;;6187732;23;20024;-68
2021/06/10 09:44:08;;;;;;;15.35;13.65;;;23.80;1.00;;;;;;6208649;23;20029;-68
2021/06/10 09:47:02;;;;;;;17.60;15.80;;;23.90;1.00;;;;;;6182613;23;20024;-69
2021/06/10 09:49:50;;;;;;;16.15;14.55;;;24.10;1.00;;;;;;6187570;23;20024;-68
2021/06/10 09:52:48;;;;;;;16.20;14.50;;;24.00;1.00;;;;;;6208267;23;20091;-70
2021/06/10 09:55:43;;;;;;;15.32;13.05;;;24.30;1.00;;;;;;6205637;23;20075;-67
2021/06/10 09:58:35;;;;;;;15.98;14.38;;;24.90;1.00;;;;;;6209626;23;20028;-68
2021/06/10 10:01:23;;;;;;;16.55;14.80;;;24.50;1.00;;;;;;6188059;23;20056;-68
2021/06/10 10:04:11;;;;;;;17.58;13.80;;;24.00;1.00;;;;;;6209349;23;20024;-69
2021/06/10 10:06:59;;;;;;;19.42;17.33;;;24.50;1.00;;;;;;6205488;23;20512;-68
2021/06/10 10:09:48;;;;;;;17.45;15.55;;;24.60;1.00;;;;;;6209073;23;20052;-68
2021/06/10 10:12:39;;;;;;;17.70;15.85;;;23.80;1.00;;;;;;6186889;23;20025;-68
2021/06/10 10:15:27;;;;;;;16.85;15.25;;;24.70;1.00;;;;;;6183355;23;20106;-68
2021/06/10 10:18:18;;;;;;;17.27;14.65;;;25.10;1.00;;;;;;6208793;23;20035;-69
2021/06/10 10:21:07;;;;;;;16.40;14.80;;;24.70;1.00;;;;;;6209713;23;20028;-68
2021/06/10 10:24:00;;;;;;;16.00;14.40;;;24.90;1.00;;;;;;6164565;23;20028;-68
2021/06/10 10:26:48;;;;;;;16.60;15.00;;;24.50;1.00;;;;;;6189068;23;20048;-68
2021/06/10 10:29:39;;;;;;;15.15;13.65;;;24.70;1.00;;;;;;6208171;23;20024;-68
2021/06/10 10:32:28;;;;;;;16.50;14.25;;;24.90;1.00;;;;;;6208528;23;20393;-68
2021/06/10 10:35:27;;;;;;;16.92;15.07;;;25.30;1.00;;;;;;6205237;23;20035;-69
2021/06/10 10:38:20;;;;;;;17.73;15.82;;;24.80;1.00;;;;;;6208140;23;20078;-68
2021/06/10 10:41:11;;;;;;;17.58;15.65;;;24.90;1.00;;;;;;6209739;23;20421;-67
2021/06/10 10:44:10;;;;;;;17.10;15.35;;;24.60;1.00;;;;;;6208650;23;20095;-68
2021/06/10 10:47:06;;;;;;;16.23;14.55;;;25.20;1.00;;;;;;6203857;23;20024;-69
2021/06/10 10:50:01;;;;;;;17.73;16.02;;;25.60;1.00;;;;;;6208591;23;20459;-68
2021/06/10 10:52:54;;;;;;;20.17;18.17;;;25.00;1.00;;;;;;6207322;23;20414;-68
2021/06/10 10:55:43;;;;;;;18.08;16.25;;;24.50;1.00;;;;;;6203273;23;20025;-68
2021/06/10 10:58:31;;;;;;;17.90;16.20;;;24.50;1.00;;;;;;6188222;23;20473;-67
2021/06/10 11:01:29;;;;;;;16.17;14.68;;;25.00;1.00;;;;;;6186429;23;20444;-68
2021/06/10 11:04:49;;;;;;;17.45;15.90;;;25.20;1.00;;;;;;6185452;23;20454;-67
2021/06/10 11:07:56;;;;;;;18.15;15.75;;;25.10;1.00;;;;;;6208318;23;20409;-68
2021/06/10 11:11:03;;;;;;;16.98;15.38;;;25.40;1.00;;;;;;6208192;23;20024;-67
2021/06/10 11:13:51;;;;;;;17.15;15.35;;;26.30;1.00;;;;;;6207641;23;20607;-68
2021/06/10 11:17:29;;;;;;;17.27;15.48;;;26.00;1.00;;;;;;6202022;23;20739;-67
2021/06/10 11:20:18;;;;;;;17.10;15.40;;;25.50;1.00;;;;;;6086530;23;20026;-68
2021/06/10 11:23:11;;;;;;;18.50;15.27;;;25.30;1.00;;;;;;6086817;23;20066;-67
2021/06/10 11:26:02;;;;;;;15.70;13.90;;;25.50;1.00;;;;;;6193090;23;20140;-67
2021/06/10 11:29:01;;;;;;;15.32;13.73;;;25.80;1.00;;;;;;6208148;23;20020;-68
2021/06/10 11:32:18;;;;;;;14.35;12.85;;;26.20;1.00;;;;;;6207560;23;20025;-68
2021/06/10 11:35:07;;;;;;;14.80;12.27;;;25.90;1.00;;;;;;6204032;23;20032;-69
2021/06/10 11:37:57;;;;;;;13.38;12.07;;;25.40;1.00;;;;;;6208576;23;20021;-69
2021/06/10 11:40:49;;;;;;;13.40;12.00;;;25.20;1.00;;;;;;6207547;23;20036;-69
2021/06/10 11:43:39;;;;;;;13.38;12.10;;;25.50;1.00;;;;;;6186379;23;20079;-68
2021/06/10 11:46:30;;;;;;;14.63;13.20;;;25.70;1.00;;;;;;6201112;23;20350;-68
2021/06/10 11:49:18;;;;;;;14.27;12.80;;;26.30;1.00;;;;;;6208819;23;20102;-69
2021/06/10 11:52:06;;;;;;;15.27;12.80;;;25.80;1.00;;;;;;6208510;23;20119;-68
2021/06/10 11:55:07;;;;;;;10.63;9.73;;;25.40;1.00;;;;;;6205335;23;20555;-67
2021/06/10 11:58:00;;;;;;;13.32;11.02;;;25.60;1.00;;;;;;6206747;23;20358;-66
2021/06/10 12:00:48;;;;;;;10.98;9.90;;;26.20;1.00;;;;;;6207856;23;20461;-67
2021/06/10 12:03:38;;;;;;;9.20;8.30;;;26.90;1.00;;;;;;6207962;23;20040;-68
2021/06/10 12:06:26;;;;;;;9.00;8.10;;;26.60;1.00;;;;;;6202072;23;20662;-68
2021/06/10 12:09:17;;;;;;;11.80;10.65;;;26.20;1.00;;;;;;6208407;23;20016;-68
2021/06/10 12:12:07;;;;;;;11.30;9.65;;;26.00;1.00;;;;;;6208111;23;20028;-68
2021/06/10 12:14:55;;;;;;;12.52;11.23;;;26.10;1.00;;;;;;6203976;23;20031;-71
2021/06/10 12:17:51;;;;;;;12.30;11.02;;;26.00;1.00;;;;;;6206533;23;20515;-69
2021/06/10 12:20:42;;;;;;;12.15;10.52;;;25.80;1.00;;;;;;6209288;23;20469;-67
2021/06/10 12:23:34;;;;;;;13.90;11.98;;;25.80;1.00;;;;;;6186720;23;20028;-67
2021/06/10 12:26:26;;;;;;;15.18;13.57;;;25.10;1.00;;;;;;6180345;23;20020;-68
2021/06/10 12:29:16;;;;;;;15.15;13.27;;;24.50;1.00;;;;;;6185304;23;20358;-68
2021/06/10 12:32:04;;;;;;;14.95;12.68;;;23.90;1.00;;;;;;6209987;23;20031;-68
2021/06/10 12:34:54;;;;;;;12.85;10.48;;;23.60;1.00;;;;;;6203336;23;20033;-68
2021/06/10 12:37:42;;;;;;;10.23;9.23;;;23.00;1.00;;;;;;6163127;23;20017;-66
2021/06/10 12:40:36;;;;;;;10.35;9.35;;;22.30;1.00;;;;;;6166743;23;20346;-68
2021/06/10 12:43:24;;;;;;;11.63;10.43;;;22.00;2.70;;;;;;6166258;23;20474;-69
2021/06/10 12:46:14;;;;;;;11.52;8.82;;;22.30;4.70;;;;;;6200571;23;20198;-68
2021/06/10 12:49:05;;;;;;;11.05;9.95;;;22.30;1.00;;;;;;6185234;23;20024;-69
2021/06/10 12:51:54;;;;;;;10.68;8.32;;;22.50;2.10;;;;;;6205419;23;20039;-69
2021/06/10 12:54:43;;;;;;;6.50;5.90;;;23.00;1.50;;;;;;6182596;23;20470;-66
2021/06/10 12:57:33;;;;;;;6.72;6.05;;;23.20;1.00;;;;;;6206051;23;20024;-66
2021/06/10 13:00:31;;;;;;;7.80;7.00;;;23.20;1.00;;;;;;6184864;23;20021;-67
2021/06/10 13:03:20;;;;;;;9.45;8.48;;;23.10;1.00;;;;;;6184950;23;20077;-67
2021/06/10 13:06:08;;;;;;;9.38;8.38;;;23.30;1.00;;;;;;6179887;23;20028;-66
2021/06/10 13:08:57;;;;;;;11.95;6.70;;;23.20;1.00;;;;;;6207455;23;20041;-68
2021/06/10 13:11:45;;;;;;;7.07;6.38;;;23.80;1.00;;;;;;6210140;23;20025;-66
2021/06/10 13:14:34;;;;;;;5.75;5.25;;;24.40;1.00;;;;;;6185848;23;20474;-66
2021/06/10 13:17:21;;;;;;;4.25;3.85;;;24.90;1.00;;;;;;6208121;23;20334;-67
2021/06/10 13:20:11;;;;;;;4.00;3.70;;;25.20;1.00;;;;;;6209769;23;20147;-68
2021/06/10 13:23:00;;;;;;;8.55;5.20;;;25.40;1.00;;;;;;6210026;23;20186;-68
2021/06/10 13:26:15;;;;;;;6.00;5.40;;;25.70;1.00;;;;;;6203505;23;20311;-66
2021/06/10 13:29:07;;;;;;;7.68;6.97;;;25.40;1.00;;;;;;6209123;23;20469;-68
2021/06/10 13:31:55;;;;;;;7.80;7.10;;;25.20;1.00;;;;;;6209653;23;20035;-68
2021/06/10 13:34:55;;;;;;;9.20;8.25;;;25.10;1.00;;;;;;6183925;23;20454;-67
2021/06/10 13:37:44;;;;;;;9.95;8.18;;;25.20;1.00;;;;;;6208263;23;20021;-67
2021/06/10 13:40:32;;;;;;;10.73;9.63;;;25.30;1.00;;;;;;6209071;23;20036;-66
2021/06/10 13:43:20;;;;;;;8.93;8.10;;;25.20;1.00;;;;;;6188426;23;20024;-66
2021/06/10 13:46:08;;;;;;;9.52;8.63;;;24.90;1.00;;;;;;6204973;23;20029;-66
2021/06/10 13:48:56;;;;;;;9.50;8.50;;;24.50;1.00;;;;;;6208730;23;20024;-66
2021/06/10 13:51:44;;;;;;;9.98;8.98;;;24.50;1.00;;;;;;6208518;23;20031;-66
2021/06/10 13:54:33;;;;;;;10.88;8.95;;;24.30;1.00;;;;;;6207126;23;20394;-68
2021/06/10 13:57:21;;;;;;;12.07;10.88;;;24.30;1.00;;;;;;6206040;23;20466;-67
2021/06/10 14:00:11;;;;;;;12.30;11.10;;;24.00;1.00;;;;;;6209759;23;20021;-67
2021/06/10 14:02:58;;;;;;;13.82;12.40;;;23.70;1.00;;;;;;6179715;23;20024;-67
2021/06/10 14:05:47;;;;;;;24.30;13.60;;;23.50;1.00;;;;;;6196688;23;20035;-66
2021/06/10 14:08:35;;;;;;;14.13;12.77;;;23.50;1.00;;;;;;6202001;23;20016;-67
2021/06/10 14:11:24;;;;;;;12.35;11.07;;;23.30;1.00;;;;;;6201180;23;20058;-67
2021/06/10 14:14:12;;;;;;;14.02;11.35;;;23.20;1.00;;;;;;6202209;23;20473;-67
2021/06/10 14:17:03;;;;;;;13.48;11.35;;;23.20;1.00;;;;;;6199286;23;20454;-68
2021/06/10 14:19:51;;;;;;;13.00;11.50;;;23.00;1.00;;;;;;6208026;23;20024;-67
2021/06/10 14:22:40;;;;;;;12.73;11.32;;;23.00;1.00;;;;;;6208897;23;20024;-68
2021/06/10 14:25:28;;;;;;;14.48;12.95;;;23.10;1.60;;;;;;6203777;23;20024;-68
2021/06/10 14:28:17;;;;;;;17.10;13.90;;;23.10;4.30;;;;;;6208299;23;20025;-68
2021/06/10 14:32:17;;;;;;;16.33;13.77;;;23.10;5.70;;;;;;6209320;23;20691;-69